createdAt,value
2023-05-11T00:02:24.080Z,5.90
2023-05-11T00:05:20.277Z,6.57
2023-05-11T00:07:58.876Z,6.00
2023-05-11T00:13:23.254Z,6.67
2023-05-11T00:15:54.569Z,6.07
2023-05-11T00:18:38.115Z,6.17
2023-05-11T00:21:10.386Z,6.70
2023-05-11T00:23:45.855Z,6.73
2023-05-11T00:26:19.707Z,5.80
2023-05-11T00:31:58.190Z,6.00
2023-05-11T00:34:27.396Z,7.23
2023-05-11T00:37:16.538Z,6.00
2023-05-11T00:39:50.994Z,7.70
2023-05-11T00:42:19.485Z,7.50
2023-05-11T00:47:55.154Z,5.90
2023-05-11T00:50:27.716Z,6.37
2023-05-11T00:52:59.632Z,5.90
2023-05-11T00:55:31.905Z,6.20
2023-05-11T00:58:26.856Z,6.13
2023-05-11T01:00:57.484Z,5.30
2023-05-11T01:03:30.293Z,5.53
2023-05-11T01:06:31.566Z,5.03
2023-05-11T01:15:37.902Z,5.60
2023-05-11T01:18:46.415Z,5.33
2023-05-11T01:21:22.581Z,4.57
2023-05-11T01:24:19.146Z,5.47
2023-05-11T01:27:01.839Z,4.60
2023-05-11T01:29:48.794Z,5.00
2023-05-11T01:32:22.515Z,5.40
2023-05-11T01:35:20.582Z,5.20
2023-05-11T01:40:54.039Z,5.30
2023-05-11T01:43:35.051Z,5.60
2023-05-11T01:46:20.030Z,4.80
2023-05-11T01:48:58.943Z,4.93
2023-05-11T01:51:32.157Z,5.23
2023-05-11T01:54:24.990Z,4.90
2023-05-11T01:56:57.619Z,5.73
2023-05-11T01:59:30.461Z,5.67
2023-05-11T02:02:06.656Z,5.50
2023-05-11T02:04:39.359Z,6.60
2023-05-11T02:07:15.162Z,6.00
2023-05-11T02:09:47.580Z,5.60
2023-05-11T02:12:20.705Z,6.90
2023-05-11T02:18:01.381Z,7.70
2023-05-11T02:20:35.097Z,7.57
2023-05-11T02:23:54.461Z,6.20
2023-05-11T02:26:37.543Z,7.07
2023-05-11T02:29:06.189Z,7.00
2023-05-11T02:32:01.828Z,7.33
2023-05-11T02:34:35.768Z,8.20
2023-05-11T02:40:23.319Z,6.33
2023-05-11T02:43:11.353Z,6.83
2023-05-11T02:45:46.061Z,6.53
2023-05-11T02:48:32.702Z,7.40
2023-05-11T02:51:05.509Z,6.00
2023-05-11T02:53:44.571Z,6.70
2023-05-11T02:56:14.301Z,6.30
2023-05-11T02:58:46.766Z,6.60
2023-05-11T03:01:20.393Z,6.50
2023-05-11T03:03:54.629Z,6.50
2023-05-11T03:06:23.377Z,7.97
2023-05-11T03:08:57.560Z,8.80
2023-05-11T03:11:34.956Z,7.50
2023-05-11T03:14:09.259Z,6.90
2023-05-11T03:17:15.888Z,8.00
2023-05-11T03:19:50.572Z,8.10
2023-05-11T03:22:23.235Z,8.20
2023-05-11T03:24:56.404Z,8.03
2023-05-11T03:27:27.493Z,8.67
2023-05-11T03:30:00.587Z,8.13
2023-05-11T03:32:34.451Z,8.90
2023-05-11T03:35:06.601Z,8.00
2023-05-11T03:37:36.868Z,8.53
2023-05-11T03:40:10.503Z,8.47
2023-05-11T03:42:43.491Z,8.10
2023-05-11T03:45:16.994Z,8.67
2023-05-11T03:47:50.556Z,8.10
2023-05-11T03:50:30.470Z,9.23
2023-05-11T03:53:04.752Z,8.93
2023-05-11T03:55:49.990Z,8.00
2023-05-11T04:01:02.053Z,8.63
2023-05-11T04:03:30.492Z,8.57
2023-05-11T04:06:28.670Z,9.23
2023-05-11T04:09:14.306Z,9.07
2023-05-11T04:11:44.539Z,8.53
2023-05-11T04:14:23.777Z,9.80
2023-05-11T04:16:59.095Z,10.53
2023-05-11T04:20:34.377Z,10.80
2023-05-11T04:23:03.344Z,8.83
2023-05-11T04:25:41.451Z,10.30
2023-05-11T04:28:14.336Z,10.87
2023-05-11T04:31:01.270Z,10.33
2023-05-11T04:33:29.937Z,11.73
2023-05-11T04:36:03.402Z,10.63
2023-05-11T04:38:32.087Z,10.57
2023-05-11T04:41:07.975Z,10.47
2023-05-11T04:43:46.614Z,10.60
2023-05-11T04:46:26.669Z,10.07
2023-05-11T04:48:55.430Z,11.23
2023-05-11T04:51:26.053Z,12.17
2023-05-11T04:54:02.536Z,9.77
2023-05-11T04:56:38.445Z,9.63
2023-05-11T04:59:13.584Z,10.80
2023-05-11T05:01:46.311Z,9.73
2023-05-11T05:04:18.389Z,10.00
2023-05-11T05:06:49.525Z,9.87
2023-05-11T05:09:21.175Z,10.70
2023-05-11T05:12:20.160Z,10.83
2023-05-11T05:14:52.828Z,10.17
2023-05-11T05:17:24.870Z,10.43
2023-05-11T05:20:01.273Z,10.77
2023-05-11T05:22:33.026Z,11.77
2023-05-11T05:25:06.959Z,10.40
2023-05-11T05:27:38.282Z,11.20
2023-05-11T05:30:09.527Z,11.70
2023-05-11T05:32:37.922Z,10.10
2023-05-11T05:35:07.088Z,11.33
2023-05-11T05:37:35.878Z,10.97
2023-05-11T05:40:04.353Z,9.70
2023-05-11T05:42:32.807Z,10.07
2023-05-11T05:45:01.556Z,9.23
2023-05-11T05:47:31.262Z,9.60
2023-05-11T05:49:59.335Z,8.60
2023-05-11T05:52:28.425Z,8.70
2023-05-11T05:54:56.691Z,8.30
2023-05-11T05:57:24.950Z,9.60
2023-05-11T05:59:53.378Z,9.30
2023-05-11T06:02:21.596Z,8.87
2023-05-11T06:04:51.377Z,8.13
2023-05-11T06:07:19.809Z,8.60
2023-05-11T06:09:47.839Z,8.97
2023-05-11T06:12:15.966Z,9.10
2023-05-11T06:14:44.651Z,7.97
2023-05-11T06:17:14.136Z,8.50
2023-05-11T06:19:42.715Z,8.07
2023-05-11T06:22:12.771Z,8.07
2023-05-11T06:24:40.957Z,9.20
2023-05-11T06:27:09.854Z,9.23
2023-05-11T06:29:38.705Z,9.40
2023-05-11T06:32:07.592Z,9.20
2023-05-11T06:34:36.148Z,8.13
2023-05-11T06:37:04.653Z,8.57
2023-05-11T06:39:38.164Z,7.63
2023-05-11T06:42:06.940Z,8.23
2023-05-11T06:44:35.701Z,7.10
2023-05-11T06:47:04.316Z,7.30
2023-05-11T06:49:32.476Z,8.33
2023-05-11T06:52:00.675Z,6.87
2023-05-11T06:54:28.926Z,7.27
2023-05-11T06:56:58.499Z,6.90
2023-05-11T06:59:27.053Z,6.17
2023-05-11T07:01:55.821Z,7.90
2023-05-11T07:04:24.380Z,7.10
2023-05-11T07:06:52.837Z,9.93
2023-05-11T07:09:22.509Z,7.67
2023-05-11T07:11:52.146Z,7.87
2023-05-11T07:14:21.693Z,6.70
2023-05-11T07:16:53.300Z,9.40
2023-05-11T07:19:21.749Z,5.30
2023-05-11T07:21:51.348Z,7.93
2023-05-11T07:24:20.327Z,6.07
2023-05-11T07:26:50.111Z,6.90
2023-05-11T07:29:18.732Z,5.30
2023-05-11T07:31:49.557Z,4.63
2023-05-11T07:34:18.287Z,4.30
2023-05-11T07:36:47.026Z,8.03
2023-05-11T07:39:17.259Z,6.43
2023-05-11T07:41:45.468Z,6.57
2023-05-11T07:44:14.061Z,6.13
2023-05-11T07:46:42.857Z,6.80
2023-05-11T07:49:18.876Z,4.00
2023-05-11T07:51:53.200Z,4.80
2023-05-11T07:54:21.924Z,5.57
2023-05-11T07:56:50.271Z,5.13
2023-05-11T07:59:19.349Z,5.97
2023-05-11T08:01:47.987Z,6.60
2023-05-11T08:04:17.857Z,7.27
2023-05-11T08:06:46.652Z,6.50
2023-05-11T08:09:15.205Z,5.00
2023-05-11T08:11:48.223Z,5.50
2023-05-11T08:14:17.801Z,4.47
2023-05-11T08:16:46.503Z,6.13
2023-05-11T08:19:15.077Z,6.17
2023-05-11T08:21:46.451Z,5.77
2023-05-11T08:24:16.130Z,6.13
2023-05-11T08:26:44.814Z,5.93
2023-05-11T08:29:13.598Z,7.80
2023-05-11T08:31:42.995Z,6.90
2023-05-11T08:34:19.249Z,7.40
2023-05-11T08:36:50.769Z,5.20
2023-05-11T08:39:33.310Z,4.80
2023-05-11T08:42:08.723Z,5.60
2023-05-11T08:44:39.926Z,4.77
2023-05-11T08:49:47.198Z,3.00
2023-05-11T08:52:20.526Z,4.17
2023-05-11T08:54:49.286Z,3.27
2023-05-11T08:57:19.185Z,3.20
2023-05-11T08:59:48.441Z,2.80
2023-05-11T09:02:20.798Z,2.60
2023-05-11T09:04:49.577Z,2.03
2023-05-11T09:07:21.139Z,3.07
2023-05-11T09:09:50.114Z,2.67
2023-05-11T09:12:18.951Z,3.00
2023-05-11T09:14:47.944Z,2.70
2023-05-11T09:17:16.481Z,4.10
2023-05-11T09:20:01.599Z,3.80
2023-05-11T09:22:36.222Z,4.07
2023-05-11T09:25:05.714Z,4.43
2023-05-11T09:27:35.110Z,5.70
2023-05-11T09:30:12.910Z,6.00
2023-05-11T09:32:53.044Z,25.37
2023-05-11T09:35:22.963Z,3.57
2023-05-11T09:38:05.681Z,3.50
2023-05-11T09:40:36.682Z,3.60
2023-05-11T09:43:05.421Z,3.60
2023-05-11T09:45:38.917Z,3.30
2023-05-11T09:48:08.563Z,3.17
2023-05-11T09:50:37.511Z,3.70
2023-05-11T09:53:07.599Z,2.77
2023-05-11T09:55:36.610Z,2.67
2023-05-11T09:58:05.843Z,3.03
2023-05-11T10:00:34.600Z,3.20
2023-05-11T10:03:05.066Z,4.40
2023-05-11T10:05:35.290Z,3.10
2023-05-11T10:08:05.164Z,4.00
2023-05-11T10:10:36.251Z,2.70
2023-05-11T10:13:05.926Z,3.23
2023-05-11T10:15:37.271Z,2.47
2023-05-11T10:18:07.181Z,3.10
2023-05-11T10:20:35.570Z,3.63
2023-05-11T10:23:04.873Z,3.83
2023-05-11T10:25:36.000Z,2.90
2023-05-11T10:28:04.496Z,2.93
2023-05-11T10:30:35.004Z,3.17
2023-05-11T10:33:04.380Z,3.30
2023-05-11T10:35:33.006Z,3.50
2023-05-11T10:38:03.012Z,3.60
2023-05-11T10:40:31.416Z,2.57
2023-05-11T10:43:24.931Z,3.07
2023-05-11T10:46:01.776Z,2.87
2023-05-11T10:49:00.521Z,3.50
2023-05-11T10:51:47.751Z,3.20
2023-05-11T10:54:28.688Z,3.00
2023-05-11T10:57:15.105Z,3.57
2023-05-11T11:00:10.792Z,3.40
2023-05-11T11:02:39.445Z,2.90
2023-05-11T11:05:11.444Z,2.90
2023-05-11T11:08:08.962Z,4.03
2023-05-11T11:10:39.492Z,4.23
2023-05-11T11:13:09.519Z,4.60
2023-05-11T11:16:16.644Z,4.60
2023-05-11T11:18:45.569Z,4.20
2023-05-11T11:21:16.323Z,4.60
2023-05-11T11:23:47.902Z,4.27
2023-05-11T11:26:19.442Z,4.47
2023-05-11T11:29:09.839Z,5.10
2023-05-11T11:31:40.487Z,4.40
2023-05-11T11:34:36.980Z,4.47
2023-05-11T11:37:06.708Z,3.37
2023-05-11T11:39:55.723Z,4.30
2023-05-11T11:42:40.074Z,4.07
2023-05-11T11:45:28.951Z,3.57
2023-05-11T11:48:13.711Z,4.07
2023-05-11T11:50:47.017Z,3.77
2023-05-11T11:53:58.456Z,3.47
2023-05-11T11:56:46.245Z,3.17
2023-05-11T11:59:16.164Z,3.20
2023-05-11T12:01:46.957Z,3.50
2023-05-11T12:04:41.363Z,3.27
2023-05-11T12:07:14.186Z,3.83
2023-05-11T12:09:43.192Z,3.80
2023-05-11T12:12:12.950Z,4.20
2023-05-11T12:14:49.514Z,4.47
2023-05-11T12:17:28.398Z,4.63
2023-05-11T12:20:12.835Z,3.37
2023-05-11T12:22:45.245Z,3.70
2023-05-11T12:25:16.487Z,4.10
2023-05-11T12:27:55.591Z,3.77
2023-05-11T12:30:26.532Z,3.67
2023-05-11T12:32:56.927Z,3.50
2023-05-11T12:35:27.879Z,3.80
2023-05-11T12:37:57.183Z,3.20
2023-05-11T12:40:25.665Z,3.60
2023-05-11T12:42:56.911Z,1.97
2023-05-11T12:45:26.956Z,2.20
2023-05-11T12:47:58.895Z,2.47
2023-05-11T12:50:27.174Z,2.20
2023-05-11T12:52:55.580Z,2.90
2023-05-11T12:55:31.096Z,1.83
2023-05-11T12:58:12.687Z,1.70
2023-05-11T13:00:53.124Z,1.93
2023-05-11T13:03:25.653Z,1.70
2023-05-11T13:06:05.346Z,1.93
2023-05-11T13:08:33.932Z,1.40
2023-05-11T13:11:20.948Z,1.50
2023-05-11T13:13:50.840Z,1.10
2023-05-11T13:16:30.093Z,1.13
2023-05-11T13:18:59.933Z,1.37
2023-05-11T13:21:29.527Z,1.23
2023-05-11T13:23:58.503Z,0.90
2023-05-11T13:26:27.815Z,1.23
2023-05-11T13:29:08.583Z,1.40
2023-05-11T13:31:44.556Z,1.40
2023-05-11T13:34:14.740Z,1.80
2023-05-11T13:36:50.446Z,1.87
2023-05-11T13:39:20.099Z,0.90
2023-05-11T13:41:49.226Z,1.20
2023-05-11T13:44:18.625Z,1.10
2023-05-11T13:46:47.578Z,1.50
2023-05-11T13:49:15.570Z,1.50
2023-05-11T13:51:43.873Z,1.60
2023-05-11T13:54:13.829Z,1.33
2023-05-11T13:56:42.659Z,1.40
2023-05-11T13:59:10.610Z,1.10
2023-05-11T14:01:40.582Z,1.20
2023-05-11T14:04:08.924Z,1.40
2023-05-11T14:06:37.809Z,1.40
2023-05-11T14:09:06.286Z,2.83
2023-05-11T14:11:34.144Z,2.03
2023-05-11T14:14:02.357Z,2.07
2023-05-11T14:16:31.632Z,2.43
2023-05-11T14:19:01.223Z,1.60
2023-05-11T14:21:29.569Z,1.57
2023-05-11T14:24:10.874Z,1.83
2023-05-11T14:26:40.293Z,1.70
2023-05-11T14:29:09.078Z,2.47
2023-05-11T14:31:37.878Z,2.20
2023-05-11T14:34:07.653Z,3.43
2023-05-11T14:36:36.566Z,2.40
2023-05-11T14:39:04.917Z,2.53
2023-05-11T14:41:33.046Z,2.63
2023-05-11T14:44:01.940Z,3.30
2023-05-11T14:46:30.062Z,2.50
2023-05-11T14:48:58.850Z,2.10
2023-05-11T14:51:28.708Z,2.77
2023-05-11T14:53:56.593Z,3.00
2023-05-11T14:56:24.609Z,2.73
2023-05-11T14:58:53.727Z,2.67
2023-05-11T15:01:21.833Z,3.00
2023-05-11T15:03:50.075Z,4.20
2023-05-11T15:06:21.982Z,2.30
2023-05-11T15:08:52.149Z,1.93
2023-05-11T15:11:21.787Z,3.00
2023-05-11T15:13:50.462Z,2.20
2023-05-11T15:16:18.825Z,2.30
2023-05-11T15:18:47.034Z,2.20
2023-05-11T15:21:15.585Z,1.93
2023-05-11T15:23:43.716Z,1.97
2023-05-11T15:26:14.610Z,1.70
2023-05-11T15:28:43.281Z,1.93
2023-05-11T15:31:11.463Z,1.90
2023-05-11T15:33:39.607Z,2.40
2023-05-11T15:36:13.449Z,1.97
2023-05-11T15:38:42.049Z,2.20
2023-05-11T15:41:10.207Z,1.63
2023-05-11T15:43:42.336Z,2.67
2023-05-11T15:46:10.336Z,1.97
2023-05-11T15:48:38.885Z,2.40
2023-05-11T15:51:08.143Z,2.17
2023-05-11T15:53:37.428Z,3.27
2023-05-11T15:56:09.088Z,2.57
2023-05-11T15:58:37.568Z,2.30
2023-05-11T16:01:07.726Z,1.80
2023-05-11T16:03:36.556Z,2.30
2023-05-11T16:06:05.259Z,2.20
2023-05-11T16:08:34.761Z,1.83
2023-05-11T16:11:03.493Z,2.03
2023-05-11T16:13:31.593Z,2.03
2023-05-11T16:16:00.636Z,3.07
2023-05-11T16:18:30.722Z,2.70
2023-05-11T16:20:59.001Z,3.03
2023-05-11T16:23:28.421Z,2.67
2023-05-11T16:25:57.537Z,2.43
2023-05-11T16:28:25.964Z,4.30
2023-05-11T16:30:58.465Z,4.17
2023-05-11T16:33:27.327Z,3.00
2023-05-11T16:35:57.524Z,4.90
2023-05-11T16:38:25.850Z,4.07
2023-05-11T16:40:55.332Z,3.00
2023-05-11T16:43:24.062Z,3.47
2023-05-11T16:45:52.744Z,2.30
2023-05-11T16:48:21.607Z,3.37
2023-05-11T16:50:53.399Z,2.70
2023-05-11T16:53:27.189Z,4.10
2023-05-11T16:55:56.636Z,2.70
2023-05-11T16:58:25.588Z,2.70
2023-05-11T17:00:54.406Z,2.60
2023-05-11T17:03:23.798Z,3.70
2023-05-11T17:05:52.497Z,3.03
2023-05-11T17:08:23.719Z,4.47
2023-05-11T17:10:52.760Z,3.00
2023-05-11T17:13:21.608Z,3.57
2023-05-11T17:15:51.480Z,3.70
2023-05-11T17:18:20.839Z,4.23
2023-05-11T17:20:53.312Z,3.87
2023-05-11T17:23:23.410Z,4.57
2023-05-11T17:25:51.607Z,4.37
2023-05-11T17:28:19.721Z,3.70
2023-05-11T17:30:49.246Z,3.00
2023-05-11T17:33:17.688Z,3.97
2023-05-11T17:35:46.233Z,3.60
2023-05-11T17:38:14.912Z,3.53
2023-05-11T17:40:45.326Z,4.13
2023-05-11T17:43:13.405Z,3.90
2023-05-11T17:45:41.973Z,4.00
2023-05-11T17:48:10.094Z,4.10
2023-05-11T17:50:38.176Z,4.40
2023-05-11T17:53:07.409Z,5.53
2023-05-11T17:55:39.599Z,6.20
2023-05-11T17:58:09.913Z,5.80
2023-05-11T18:00:38.746Z,6.50
2023-05-11T18:03:07.395Z,5.50
2023-05-11T18:05:48.426Z,5.43
2023-05-11T18:08:17.285Z,6.53
2023-05-11T18:10:46.011Z,5.40
2023-05-11T18:13:17.409Z,4.83
2023-05-11T18:15:46.735Z,5.47
2023-05-11T18:18:14.983Z,7.13
2023-05-11T18:20:46.044Z,7.20
2023-05-11T18:23:14.313Z,5.97
2023-05-11T18:25:42.366Z,5.90
2023-05-11T18:28:11.209Z,5.97
2023-05-11T18:30:40.651Z,6.17
2023-05-11T18:33:09.587Z,7.20
2023-05-11T18:35:39.601Z,5.10
2023-05-11T18:38:08.102Z,6.17
2023-05-11T18:40:36.623Z,5.50
2023-05-11T18:43:05.686Z,6.60
2023-05-11T18:45:35.157Z,5.67
2023-05-11T18:48:05.078Z,6.33
2023-05-11T18:50:34.347Z,6.13
2023-05-11T18:53:02.357Z,6.40
2023-05-11T18:55:35.494Z,5.80
2023-05-11T18:58:09.898Z,7.27
2023-05-11T19:00:39.375Z,6.50
2023-05-11T19:03:10.157Z,6.57
2023-05-11T19:05:38.941Z,7.07
2023-05-11T19:08:07.542Z,7.30
2023-05-11T19:10:38.623Z,6.70
2023-05-11T19:13:07.068Z,7.73
2023-05-11T19:15:37.216Z,7.07
2023-05-11T19:18:05.767Z,7.20
2023-05-11T19:20:35.859Z,6.80
2023-05-11T19:23:04.860Z,8.73
2023-05-11T19:25:33.239Z,7.43
2023-05-11T19:28:01.484Z,7.83
2023-05-11T19:30:30.261Z,7.90
2023-05-11T19:32:59.174Z,8.60
2023-05-11T19:35:28.233Z,7.40
2023-05-11T19:37:58.188Z,8.37
2023-05-11T19:40:45.480Z,9.00
2023-05-11T19:43:14.777Z,9.80
2023-05-11T19:45:43.747Z,8.57
2023-05-11T19:48:12.135Z,8.33
2023-05-11T19:50:40.799Z,8.57
2023-05-11T19:53:10.056Z,8.43
2023-05-11T19:55:38.630Z,8.40
2023-05-11T19:58:10.468Z,9.00
2023-05-11T20:00:41.114Z,8.70
2023-05-11T20:03:10.303Z,7.90
2023-05-11T20:05:39.000Z,8.80
2023-05-11T20:08:07.798Z,8.30
2023-05-11T20:10:37.846Z,9.57
2023-05-11T20:13:08.200Z,8.27
2023-05-11T20:15:41.713Z,9.00
2023-05-11T20:18:13.155Z,7.70
2023-05-11T20:20:48.011Z,8.67
2023-05-11T20:23:25.145Z,7.93
2023-05-11T20:25:55.320Z,8.60
2023-05-11T20:28:27.402Z,8.93
2023-05-11T20:31:00.792Z,10.10
2023-05-11T20:36:07.078Z,10.60
2023-05-11T20:38:37.205Z,11.43
2023-05-11T20:41:12.658Z,9.53
2023-05-11T20:43:41.217Z,9.00
2023-05-11T20:46:11.492Z,9.30
2023-05-11T20:48:43.739Z,8.27
2023-05-11T20:51:15.454Z,8.87
2023-05-11T20:53:44.266Z,8.73
2023-05-11T20:56:14.014Z,9.23
2023-05-11T20:58:48.091Z,9.20
2023-05-11T21:01:16.280Z,9.07
2023-05-11T21:03:46.818Z,8.80
2023-05-11T21:06:15.410Z,8.50
2023-05-11T21:08:43.173Z,9.90
2023-05-11T21:11:14.393Z,8.13
2023-05-11T21:13:44.255Z,8.20
2023-05-11T21:16:12.207Z,8.20
2023-05-11T21:18:40.942Z,9.73
2023-05-11T21:21:09.715Z,8.50
2023-05-11T21:23:40.391Z,10.00
2023-05-11T21:26:10.769Z,8.63
2023-05-11T21:28:41.043Z,7.80
2023-05-11T21:31:10.914Z,8.20
2023-05-11T21:33:38.891Z,7.67
2023-05-11T21:36:09.589Z,8.83
2023-05-11T21:38:37.748Z,8.50
2023-05-11T21:41:06.163Z,9.40
2023-05-11T21:43:34.936Z,8.83
2023-05-11T21:46:03.074Z,9.63
2023-05-11T21:48:33.623Z,10.63
2023-05-11T21:51:02.953Z,10.30
2023-05-11T21:53:31.215Z,10.40
2023-05-11T21:55:59.181Z,9.60
2023-05-11T21:58:27.991Z,11.30
2023-05-11T22:00:57.212Z,13.03
2023-05-11T22:03:25.520Z,12.67
2023-05-11T22:05:56.161Z,11.20
2023-05-11T22:08:24.435Z,11.13
2023-05-11T22:10:52.857Z,11.90
2023-05-11T22:13:21.456Z,10.23
2023-05-11T22:15:49.912Z,10.93
2023-05-11T22:18:17.790Z,11.90
2023-05-11T22:20:46.459Z,12.13
2023-05-11T22:23:15.946Z,11.57
2023-05-11T22:25:44.315Z,13.50
2023-05-11T22:28:13.002Z,13.53
2023-05-11T22:30:41.546Z,12.30
2023-05-11T22:33:10.139Z,13.90
2023-05-11T22:35:40.304Z,14.23
2023-05-11T22:38:09.159Z,11.90
2023-05-11T22:40:38.828Z,12.70
2023-05-11T22:43:07.540Z,11.60
2023-05-11T22:45:35.910Z,12.53
2023-05-11T22:48:04.580Z,12.60
2023-05-11T22:50:36.572Z,10.83
2023-05-11T22:53:04.850Z,11.20
2023-05-11T22:55:32.809Z,12.20
2023-05-11T22:58:03.922Z,11.73
2023-05-11T23:00:31.967Z,12.03
2023-05-11T23:03:00.585Z,12.90
2023-05-11T23:05:29.265Z,13.53
2023-05-11T23:08:00.178Z,14.57
2023-05-11T23:10:28.799Z,13.17
2023-05-11T23:12:57.089Z,13.60
2023-05-11T23:15:26.855Z,14.27
2023-05-11T23:17:54.809Z,13.60
2023-05-11T23:20:23.315Z,14.73
2023-05-11T23:22:52.038Z,13.60
2023-05-11T23:25:20.458Z,13.23
2023-05-11T23:27:48.703Z,12.63
2023-05-11T23:30:17.672Z,12.47
2023-05-11T23:32:47.433Z,11.33
2023-05-11T23:35:16.267Z,12.13
2023-05-11T23:37:46.482Z,10.40
2023-05-11T23:40:15.746Z,10.27
2023-05-11T23:42:43.784Z,9.70
2023-05-11T23:45:13.405Z,10.47
2023-05-11T23:47:41.918Z,11.10
2023-05-11T23:50:13.215Z,10.67
2023-05-11T23:52:41.098Z,10.40
2023-05-11T23:55:10.757Z,12.00
2023-05-11T23:57:38.822Z,13.03
